Time;durP1;ratioP1;P1;durP2;ratioP2;P2;SDS_P1;SDS_P2;PMS_P1;PMS_P2;Temp;Humidity;BMP_temperature;BMP_pressure;BME280_temperature;BME280_humidity;BME280_pressure;Samples;Min_cycle;Max_cycle;Signal;HPM_P1;HPM_P2
2023/01/06 00:01:04;;;;;;;;;4.00;1.50;;;;;;;;5082441;27;45458;-67
2023/01/06 00:03:30;;;;;;;;;2.00;2.00;;;;;;;;5075481;27;45429;-68
2023/01/06 00:06:02;;;;;;;;;1.00;1.00;;;;;;;;5078781;28;47252;-68
2023/01/06 00:08:27;;;;;;;;;2.00;2.00;;;;;;;;5078447;28;45739;-68
2023/01/06 00:10:53;;;;;;;;;1.00;1.00;;;;;;;;5078852;27;45474;-67
2023/01/06 00:13:18;;;;;;;;;3.25;2.00;;;;;;;;5081080;27;45416;-68
2023/01/06 00:15:43;;;;;;;;;1.00;1.00;;;;;;;;5079199;27;45525;-68
2023/01/06 00:18:08;;;;;;;;;2.00;2.00;;;;;;;;5082729;27;45498;-67
2023/01/06 00:20:33;;;;;;;;;2.50;2.25;;;;;;;;5082659;27;45606;-67
2023/01/06 00:22:59;;;;;;;;;2.00;1.00;;;;;;;;5079865;27;45367;-68
2023/01/06 00:25:24;;;;;;;;;3.00;1.00;;;;;;;;5080566;27;46202;-68
2023/01/06 00:27:49;;;;;;;;;2.00;1.25;;;;;;;;5079504;27;45365;-68
2023/01/06 00:30:14;;;;;;;;;0.50;0.50;;;;;;;;5078432;28;45343;-68
2023/01/06 00:32:40;;;;;;;;;2.00;2.00;;;;;;;;5078451;28;45782;-68
2023/01/06 00:35:05;;;;;;;;;2.00;2.00;;;;;;;;5079833;27;47263;-67
2023/01/06 00:37:30;;;;;;;;;3.00;1.00;;;;;;;;5082563;27;45398;-68
2023/01/06 00:39:55;;;;;;;;;5.75;5.00;;;;;;;;5078332;28;45907;-68
2023/01/06 00:42:21;;;;;;;;;1.75;1.00;;;;;;;;5078716;27;45596;-67
2023/01/06 00:44:46;;;;;;;;;2.50;1.00;;;;;;;;5059855;28;46338;-68
2023/01/06 00:47:13;;;;;;;;;0.50;0.50;;;;;;;;5077783;27;46411;-68
2023/01/06 00:49:38;;;;;;;;;2.50;1.00;;;;;;;;5078104;28;45546;-68
2023/01/06 00:52:03;;;;;;;;;1.75;1.00;;;;;;;;5081165;27;45261;-67
2023/01/06 00:54:29;;;;;;;;;0.00;0.00;;;;;;;;5084438;27;46115;-68
2023/01/06 00:56:54;;;;;;;;;1.00;1.00;;;;;;;;5077948;28;45406;-67
2023/01/06 00:59:21;;;;;;;;;2.25;1.50;;;;;;;;5080046;27;45381;-67
2023/01/06 01:01:48;;;;;;;;;1.50;1.50;;;;;;;;5077891;28;45462;-67
2023/01/06 01:04:13;;;;;;;;;2.50;1.00;;;;;;;;5077669;28;45880;-68
2023/01/06 01:06:40;;;;;;;;;3.50;1.00;;;;;;;;5076474;27;46371;-67
2023/01/06 01:09:05;;;;;;;;;1.00;1.00;;;;;;;;5077765;27;45548;-68
2023/01/06 01:14:17;;;;;;;;;0.50;0.50;;;;;;;;5079342;27;45483;-67
2023/01/06 01:16:43;;;;;;;;;3.00;1.25;;;;;;;;5080120;27;45429;-67
2023/01/06 01:19:08;;;;;;;;;0.00;0.00;;;;;;;;5077591;27;45492;-67
2023/01/06 01:21:34;;;;;;;;;1.75;1.50;;;;;;;;5078489;27;45303;-68
2023/01/06 01:23:59;;;;;;;;;1.00;1.00;;;;;;;;5077170;28;45569;-67
2023/01/06 01:26:24;;;;;;;;;1.25;1.25;;;;;;;;5077615;27;45286;-68
2023/01/06 01:28:49;;;;;;;;;1.00;1.00;;;;;;;;5077649;28;45428;-68
2023/01/06 01:31:14;;;;;;;;;0.75;0.75;;;;;;;;5075273;28;45245;-68
2023/01/06 01:33:40;;;;;;;;;1.00;1.00;;;;;;;;5075007;28;46452;-68
2023/01/06 01:36:06;;;;;;;;;2.00;0.75;;;;;;;;5077200;28;45341;-68
2023/01/06 01:38:31;;;;;;;;;3.00;1.00;;;;;;;;5077353;28;45200;-67
2023/01/06 01:40:56;;;;;;;;;2.00;1.00;;;;;;;;5077316;28;45447;-68
2023/01/06 01:43:22;;;;;;;;;2.00;0.25;;;;;;;;5077169;28;46527;-67
2023/01/06 01:45:49;;;;;;;;;1.00;1.00;;;;;;;;5077118;27;45443;-68
2023/01/06 01:48:26;;;;;;;;;0.50;0.50;;;;;;;;5076900;27;45489;-68
2023/01/06 01:50:53;;;;;;;;;1.75;0.50;;;;;;;;5081325;27;45409;-68
2023/01/06 01:53:24;;;;;;;;;1.00;1.00;;;;;;;;5077142;27;46400;-68
2023/01/06 01:55:50;;;;;;;;;0.00;0.00;;;;;;;;5077750;27;45395;-68
2023/01/06 01:58:36;;;;;;;;;3.00;2.00;;;;;;;;5077111;28;45415;-68
2023/01/06 02:01:01;;;;;;;;;1.00;1.00;;;;;;;;5075640;27;45573;-68
2023/01/06 02:03:26;;;;;;;;;1.25;0.75;;;;;;;;5076477;28;46685;-68
2023/01/06 02:05:54;;;;;;;;;1.75;1.00;;;;;;;;5076569;27;45427;-68
2023/01/06 02:08:30;;;;;;;;;1.00;1.00;;;;;;;;5079946;27;45543;-68
2023/01/06 02:10:56;;;;;;;;;0.25;0.25;;;;;;;;5076855;27;45788;-67
2023/01/06 02:13:21;;;;;;;;;1.00;1.00;;;;;;;;5079507;27;45522;-68
2023/01/06 02:15:46;;;;;;;;;3.00;1.00;;;;;;;;5076453;28;45631;-67
2023/01/06 02:18:14;;;;;;;;;1.00;1.00;;;;;;;;5076035;28;45553;-68
2023/01/06 02:20:45;;;;;;;;;1.25;0.00;;;;;;;;5075607;27;45202;-67
2023/01/06 02:23:31;;;;;;;;;0.00;0.00;;;;;;;;5076340;27;46853;-67
2023/01/06 02:26:14;;;;;;;;;1.00;1.00;;;;;;;;5076274;28;45478;-68
2023/01/06 02:28:39;;;;;;;;;3.25;0.25;;;;;;;;5076439;28;45462;-68
2023/01/06 02:31:11;;;;;;;;;0.00;0.00;;;;;;;;5076311;28;45428;-68
2023/01/06 02:33:49;;;;;;;;;0.25;0.00;;;;;;;;5076310;28;47165;-68
2023/01/06 02:36:33;;;;;;;;;0.00;0.00;;;;;;;;5076314;27;45594;-68
2023/01/06 02:39:12;;;;;;;;;0.25;0.25;;;;;;;;5079359;27;45258;-67
2023/01/06 02:41:37;;;;;;;;;0.00;0.00;;;;;;;;5076599;28;45653;-67
2023/01/06 02:44:11;;;;;;;;;2.00;0.50;;;;;;;;5080064;27;46471;-68
2023/01/06 02:46:54;;;;;;;;;1.50;1.00;;;;;;;;5076425;27;45526;-68
2023/01/06 02:49:38;;;;;;;;;1.00;1.00;;;;;;;;5076075;28;45420;-68
2023/01/06 02:52:09;;;;;;;;;0.00;0.00;;;;;;;;5079667;27;45376;-68
2023/01/06 02:54:46;;;;;;;;;0.00;0.00;;;;;;;;5073579;27;45343;-68
2023/01/06 02:57:17;;;;;;;;;1.00;1.00;;;;;;;;5077417;27;45277;-68
2023/01/06 02:59:52;;;;;;;;;0.00;0.00;;;;;;;;5072264;28;45475;-67
2023/01/06 03:02:19;;;;;;;;;0.00;0.00;;;;;;;;5076233;28;45431;-67
2023/01/06 03:04:46;;;;;;;;;0.00;0.00;;;;;;;;5075561;28;45511;-68
2023/01/06 03:07:13;;;;;;;;;3.00;1.00;;;;;;;;5075848;27;45463;-67
2023/01/06 03:09:38;;;;;;;;;1.00;1.00;;;;;;;;5074943;28;45340;-68
2023/01/06 03:12:11;;;;;;;;;1.00;1.00;;;;;;;;5076064;28;45472;-68
2023/01/06 03:14:39;;;;;;;;;0.00;0.00;;;;;;;;5075549;28;45723;-68
2023/01/06 03:17:04;;;;;;;;;0.00;0.00;;;;;;;;5075662;28;45429;-68
2023/01/06 03:19:30;;;;;;;;;1.00;0.00;;;;;;;;5077091;27;45450;-68
2023/01/06 03:21:56;;;;;;;;;1.00;1.00;;;;;;;;5071847;28;45313;-68
2023/01/06 03:24:21;;;;;;;;;2.00;1.00;;;;;;;;5075397;28;46807;-68
2023/01/06 03:26:47;;;;;;;;;1.25;1.25;;;;;;;;5082393;27;45398;-68
2023/01/06 03:29:14;;;;;;;;;0.50;0.50;;;;;;;;5078452;27;45435;-67
2023/01/06 03:32:06;;;;;;;;;1.00;1.00;;;;;;;;5081466;27;45530;-68
2023/01/06 03:34:54;;;;;;;;;2.00;1.00;;;;;;;;5016002;28;46472;-68
2023/01/06 03:37:26;;;;;;;;;1.00;1.00;;;;;;;;5016500;28;45338;-68
2023/01/06 03:40:06;;;;;;;;;1.00;1.00;;;;;;;;5016630;28;45497;-68
2023/01/06 03:45:32;;;;;;;;;0.00;0.00;;;;;;;;5015360;28;45483;-68
2023/01/06 03:48:17;;;;;;;;;2.00;1.00;;;;;;;;5018272;28;45529;-68
2023/01/06 03:50:45;;;;;;;;;2.00;1.00;;;;;;;;5016389;28;45428;-67
2023/01/06 03:53:16;;;;;;;;;2.00;0.25;;;;;;;;5016569;28;45575;-68
2023/01/06 03:55:45;;;;;;;;;0.75;0.00;;;;;;;;5016135;28;45686;-68
2023/01/06 03:58:11;;;;;;;;;1.00;1.00;;;;;;;;5017848;28;45653;-68
2023/01/06 04:00:36;;;;;;;;;2.00;0.00;;;;;;;;5016138;28;46508;-68
2023/01/06 04:03:03;;;;;;;;;0.75;0.75;;;;;;;;5021488;28;45390;-68
2023/01/06 04:05:28;;;;;;;;;2.50;1.00;;;;;;;;5015739;28;45783;-67
2023/01/06 04:07:53;;;;;;;;;1.00;1.00;;;;;;;;5019853;28;45524;-68
2023/01/06 04:10:19;;;;;;;;;0.50;0.00;;;;;;;;5020557;28;45212;-67
2023/01/06 04:12:44;;;;;;;;;0.00;0.00;;;;;;;;5078968;28;45526;-68
2023/01/06 04:15:14;;;;;;;;;0.00;0.00;;;;;;;;5078522;28;46664;-68
2023/01/06 04:17:40;;;;;;;;;1.00;1.00;;;;;;;;5077492;27;45471;-68
2023/01/06 04:20:06;;;;;;;;;1.00;1.00;;;;;;;;5085073;27;45311;-68
2023/01/06 04:22:32;;;;;;;;;0.00;0.00;;;;;;;;5078741;27;45397;-67
2023/01/06 04:24:57;;;;;;;;;1.00;1.00;;;;;;;;5080616;27;46019;-68
2023/01/06 04:27:22;;;;;;;;;1.00;1.00;;;;;;;;5078353;28;45428;-68
2023/01/06 04:29:47;;;;;;;;;2.00;1.25;;;;;;;;5078147;28;45358;-68
2023/01/06 04:32:12;;;;;;;;;1.00;1.00;;;;;;;;5078831;28;45479;-68
2023/01/06 04:34:38;;;;;;;;;2.00;1.00;;;;;;;;5077776;28;45318;-68
2023/01/06 04:37:03;;;;;;;;;2.75;1.00;;;;;;;;5078060;27;45521;-68
2023/01/06 04:39:28;;;;;;;;;1.00;1.00;;;;;;;;5081128;27;45202;-68
2023/01/06 04:41:53;;;;;;;;;1.00;1.00;;;;;;;;5082227;27;45421;-68
2023/01/06 04:44:19;;;;;;;;;1.00;1.00;;;;;;;;5077966;27;45460;-67
2023/01/06 04:46:45;;;;;;;;;2.00;1.00;;;;;;;;5078238;27;45653;-68
2023/01/06 04:49:10;;;;;;;;;2.00;2.00;;;;;;;;5078032;28;45308;-67
2023/01/06 04:51:35;;;;;;;;;1.50;1.50;;;;;;;;5081673;27;46304;-68
2023/01/06 04:54:00;;;;;;;;;1.75;0.00;;;;;;;;5079623;27;45368;-68
2023/01/06 04:56:25;;;;;;;;;1.00;1.00;;;;;;;;5078693;27;45435;-68
2023/01/06 04:58:54;;;;;;;;;0.75;0.75;;;;;;;;5079600;27;45646;-68
2023/01/06 05:01:19;;;;;;;;;1.00;0.25;;;;;;;;5078044;28;45538;-68
2023/01/06 05:03:45;;;;;;;;;0.00;0.00;;;;;;;;5077804;27;45506;-68
2023/01/06 05:06:10;;;;;;;;;0.75;0.75;;;;;;;;5077546;28;45527;-67
2023/01/06 05:08:36;;;;;;;;;0.75;0.00;;;;;;;;5078472;27;45487;-68
2023/01/06 05:11:04;;;;;;;;;1.75;0.00;;;;;;;;5077930;28;45376;-68
2023/01/06 05:13:32;;;;;;;;;1.50;0.50;;;;;;;;5077465;28;46295;-67
2023/01/06 05:15:58;;;;;;;;;0.00;0.00;;;;;;;;5077506;28;45439;-67
2023/01/06 05:18:23;;;;;;;;;0.00;0.00;;;;;;;;5077773;28;45438;-67
2023/01/06 05:20:49;;;;;;;;;0.75;0.75;;;;;;;;5077774;27;45349;-68
2023/01/06 05:23:15;;;;;;;;;0.75;0.75;;;;;;;;5077145;27;46807;-68
2023/01/06 05:25:40;;;;;;;;;1.00;1.00;;;;;;;;5080611;27;45357;-68
2023/01/06 05:28:05;;;;;;;;;1.00;0.00;;;;;;;;5077884;27;45741;-67
2023/01/06 05:30:30;;;;;;;;;0.00;0.00;;;;;;;;5080498;27;45490;-68
2023/01/06 05:32:55;;;;;;;;;1.00;1.00;;;;;;;;5077144;28;46696;-68
2023/01/06 05:35:21;;;;;;;;;0.00;0.00;;;;;;;;5077009;28;45638;-68
2023/01/06 05:37:46;;;;;;;;;0.00;0.00;;;;;;;;5077480;28;45424;-68
2023/01/06 05:40:11;;;;;;;;;0.25;0.25;;;;;;;;5080005;27;45508;-67
2023/01/06 05:42:36;;;;;;;;;0.00;0.00;;;;;;;;5081272;27;45429;-68
2023/01/06 05:45:01;;;;;;;;;0.00;0.00;;;;;;;;5077737;27;45613;-67
2023/01/06 05:47:27;;;;;;;;;0.00;0.00;;;;;;;;5077226;28;45619;-68
2023/01/06 05:49:52;;;;;;;;;0.00;0.00;;;;;;;;5077310;28;45391;-68
2023/01/06 05:52:17;;;;;;;;;1.00;0.00;;;;;;;;5076908;27;46319;-68
2023/01/06 05:54:42;;;;;;;;;0.00;0.00;;;;;;;;5075760;27;45420;-68
2023/01/06 05:57:09;;;;;;;;;0.00;0.00;;;;;;;;5083579;27;45352;-67
2023/01/06 05:59:35;;;;;;;;;0.00;0.00;;;;;;;;5077392;27;46097;-68
2023/01/06 06:02:00;;;;;;;;;2.00;0.25;;;;;;;;5080843;27;45398;-68
2023/01/06 06:04:25;;;;;;;;;1.00;0.75;;;;;;;;5076619;27;45384;-67
2023/01/06 06:06:50;;;;;;;;;0.75;0.75;;;;;;;;5076795;27;45546;-67
2023/01/06 06:09:15;;;;;;;;;2.75;1.00;;;;;;;;5077102;27;45475;-68
2023/01/06 06:11:41;;;;;;;;;1.25;1.25;;;;;;;;5076573;27;45502;-68
2023/01/06 06:14:07;;;;;;;;;1.00;1.00;;;;;;;;5083040;27;45603;-68
2023/01/06 06:16:32;;;;;;;;;3.25;1.00;;;;;;;;5076570;28;45823;-68
2023/01/06 06:18:58;;;;;;;;;1.00;1.00;;;;;;;;5076939;27;45792;-68
2023/01/06 06:21:28;;;;;;;;;1.25;1.25;;;;;;;;5076441;28;46247;-68
2023/01/06 06:23:54;;;;;;;;;0.75;0.75;;;;;;;;5076581;27;45495;-67
2023/01/06 06:26:20;;;;;;;;;2.00;0.00;;;;;;;;5076435;28;45531;-67
2023/01/06 06:28:45;;;;;;;;;1.25;1.00;;;;;;;;5077924;27;45427;-68
2023/01/06 06:31:12;;;;;;;;;2.75;1.00;;;;;;;;5079474;27;46147;-68
2023/01/06 06:33:38;;;;;;;;;0.75;0.00;;;;;;;;5067735;27;45508;-68
2023/01/06 06:36:04;;;;;;;;;1.25;1.00;;;;;;;;5076066;28;45461;-68
2023/01/06 06:38:29;;;;;;;;;0.25;0.25;;;;;;;;5076531;28;45399;-68
2023/01/06 06:40:54;;;;;;;;;3.00;3.00;;;;;;;;5076450;28;46517;-68
2023/01/06 06:43:20;;;;;;;;;1.00;0.00;;;;;;;;5075929;28;45407;-68
2023/01/06 06:45:46;;;;;;;;;1.00;1.00;;;;;;;;5082347;27;45324;-68
2023/01/06 06:48:11;;;;;;;;;0.00;0.00;;;;;;;;5077624;27;46435;-68
2023/01/06 06:50:36;;;;;;;;;2.00;0.00;;;;;;;;5075934;28;45394;-69
2023/01/06 06:53:01;;;;;;;;;1.25;1.00;;;;;;;;5076695;27;45438;-68
2023/01/06 06:55:27;;;;;;;;;0.75;0.75;;;;;;;;5077334;28;45575;-68
2023/01/06 06:57:52;;;;;;;;;1.00;1.00;;;;;;;;5078019;28;45447;-68
2023/01/06 07:00:17;;;;;;;;;0.50;0.50;;;;;;;;5069389;27;46101;-68
2023/01/06 07:02:46;;;;;;;;;2.00;1.25;;;;;;;;5056552;28;45404;-68
2023/01/06 07:05:11;;;;;;;;;0.50;0.50;;;;;;;;5056754;28;45443;-68
2023/01/06 07:07:36;;;;;;;;;1.25;1.00;;;;;;;;5057165;28;45394;-68
2023/01/06 07:10:01;;;;;;;;;0.00;0.00;;;;;;;;5057163;28;46590;-68
2023/01/06 07:12:26;;;;;;;;;3.00;2.00;;;;;;;;5057001;28;45175;-68
2023/01/06 07:14:52;;;;;;;;;1.00;1.00;;;;;;;;5063941;28;45997;-68
2023/01/06 07:17:17;;;;;;;;;1.50;1.50;;;;;;;;5076337;28;45521;-68
2023/01/06 07:19:42;;;;;;;;;4.50;3.50;;;;;;;;5077046;28;45533;-68
2023/01/06 07:22:07;;;;;;;;;2.00;2.00;;;;;;;;5076387;27;45528;-68
2023/01/06 07:24:32;;;;;;;;;5.00;4.50;;;;;;;;5077245;28;45333;-68
2023/01/06 07:26:58;;;;;;;;;8.00;8.00;;;;;;;;5077142;28;45404;-67
2023/01/06 07:29:23;;;;;;;;;4.00;2.00;;;;;;;;5076775;27;45514;-67
2023/01/06 07:31:48;;;;;;;;;1.50;1.50;;;;;;;;5077083;28;45551;-67
2023/01/06 07:34:13;;;;;;;;;1.25;1.00;;;;;;;;5076500;28;45438;-67
2023/01/06 07:36:38;;;;;;;;;3.00;3.00;;;;;;;;5077050;28;45344;-68
2023/01/06 07:39:04;;;;;;;;;2.00;2.00;;;;;;;;5077038;28;46685;-68
2023/01/06 07:41:30;;;;;;;;;2.25;2.25;;;;;;;;5076716;28;45373;-67
2023/01/06 07:43:55;;;;;;;;;3.00;3.00;;;;;;;;5076709;28;45399;-68
2023/01/06 07:46:20;;;;;;;;;2.00;2.00;;;;;;;;5077282;28;45402;-68
2023/01/06 07:48:45;;;;;;;;;2.00;2.00;;;;;;;;5076762;28;45470;-68
2023/01/06 07:51:10;;;;;;;;;3.75;3.75;;;;;;;;5080623;27;45325;-68
2023/01/06 07:53:36;;;;;;;;;5.00;5.00;;;;;;;;5086622;27;45441;-68
2023/01/06 07:56:01;;;;;;;;;2.00;1.00;;;;;;;;5075879;28;45464;-68
2023/01/06 07:58:27;;;;;;;;;2.25;2.00;;;;;;;;5075744;28;47012;-68
2023/01/06 08:00:52;;;;;;;;;1.00;1.00;;;;;;;;5076594;28;45878;-67
2023/01/06 08:03:17;;;;;;;;;2.00;1.00;;;;;;;;5076438;28;45525;-69
2023/01/06 08:05:43;;;;;;;;;1.00;1.00;;;;;;;;5076509;27;46500;-68
2023/01/06 08:08:08;;;;;;;;;1.00;1.00;;;;;;;;5075329;27;47498;-68
2023/01/06 08:10:34;;;;;;;;;3.00;1.50;;;;;;;;5097095;27;45380;-69
2023/01/06 08:12:59;;;;;;;;;3.00;2.00;;;;;;;;5089682;27;45326;-69
2023/01/06 08:15:24;;;;;;;;;2.00;2.00;;;;;;;;5078448;28;45396;-68
2023/01/06 08:17:53;;;;;;;;;4.00;4.00;;;;;;;;5079577;27;45390;-69
2023/01/06 08:20:18;;;;;;;;;1.60;1.60;;;;;;;;5079846;27;45427;-70
2023/01/06 08:22:43;;;;;;;;;3.50;3.50;;;;;;;;5079906;28;45649;-71
2023/01/06 08:25:09;;;;;;;;;2.50;1.50;;;;;;;;5077752;28;45230;-70
2023/01/06 08:27:34;;;;;;;;;5.00;3.75;;;;;;;;5079091;27;47493;-70
2023/01/06 08:29:59;;;;;;;;;3.00;3.00;;;;;;;;5079497;28;45900;-69
2023/01/06 08:32:25;;;;;;;;;3.00;3.00;;;;;;;;5079730;28;46025;-69
2023/01/06 08:34:50;;;;;;;;;4.50;3.00;;;;;;;;5079260;28;45352;-69
2023/01/06 08:37:15;;;;;;;;;3.75;3.75;;;;;;;;5079430;27;47164;-69
2023/01/06 08:39:40;;;;;;;;;4.00;2.00;;;;;;;;5079598;27;45588;-69
2023/01/06 08:42:05;;;;;;;;;3.00;1.25;;;;;;;;5061306;28;45409;-69
2023/01/06 08:44:31;;;;;;;;;2.50;2.00;;;;;;;;5079863;28;45460;-69
2023/01/06 08:46:56;;;;;;;;;2.50;2.00;;;;;;;;5079329;27;46604;-69
2023/01/06 08:49:21;;;;;;;;;3.25;3.00;;;;;;;;5079371;28;45326;-70
2023/01/06 08:51:46;;;;;;;;;4.75;4.75;;;;;;;;5079738;28;45448;-70
2023/01/06 08:54:13;;;;;;;;;4.50;3.00;;;;;;;;5079495;28;45372;-70
2023/01/06 08:56:38;;;;;;;;;4.00;3.00;;;;;;;;5079069;28;47401;-69
2023/01/06 08:59:04;;;;;;;;;2.50;2.50;;;;;;;;5079291;28;45443;-70
2023/01/06 09:01:30;;;;;;;;;3.50;3.50;;;;;;;;5079299;27;45374;-69
2023/01/06 09:03:59;;;;;;;;;2.00;2.00;;;;;;;;5079454;28;45439;-69
2023/01/06 09:06:25;;;;;;;;;2.50;2.50;;;;;;;;5078935;28;45703;-70
2023/01/06 09:08:51;;;;;;;;;1.00;1.00;;;;;;;;5078579;27;46155;-69
2023/01/06 09:11:16;;;;;;;;;2.00;1.00;;;;;;;;5079077;28;45460;-69
2023/01/06 09:13:41;;;;;;;;;1.00;1.00;;;;;;;;5079353;28;45402;-69
2023/01/06 09:16:07;;;;;;;;;4.00;4.00;;;;;;;;5079003;28;46674;-69
2023/01/06 09:18:33;;;;;;;;;2.00;2.00;;;;;;;;5078893;27;45674;-69
2023/01/06 09:20:58;;;;;;;;;2.25;2.00;;;;;;;;5079061;27;45312;-69
2023/01/06 09:23:24;;;;;;;;;4.00;4.00;;;;;;;;5079096;28;45338;-69
2023/01/06 09:25:49;;;;;;;;;2.00;2.00;;;;;;;;5078221;28;46588;-69
2023/01/06 09:28:14;;;;;;;;;2.00;1.50;;;;;;;;5078313;28;45405;-69
2023/01/06 09:30:39;;;;;;;;;3.75;3.00;;;;;;;;5078825;28;45522;-68
2023/01/06 09:33:05;;;;;;;;;3.75;3.75;;;;;;;;5079243;28;45216;-69
2023/01/06 09:35:30;;;;;;;;;3.00;3.00;;;;;;;;5078529;28;46264;-69
2023/01/06 09:37:55;;;;;;;;;4.75;3.75;;;;;;;;5078527;28;45359;-69
2023/01/06 09:40:47;;;;;;;;;4.00;4.00;;;;;;;;5078558;28;45433;-69
2023/01/06 09:43:15;;;;;;;;;23.00;21.33;;;;;;;;5055138;28;45378;-69
2023/01/06 09:45:45;;;;;;;;;5.25;3.50;;;;;;;;5078381;28;46586;-69
2023/01/06 09:48:14;;;;;;;;;3.00;3.00;;;;;;;;5078220;28;45503;-69
2023/01/06 09:50:41;;;;;;;;;8.25;7.00;;;;;;;;5078856;28;45349;-69
2023/01/06 09:53:21;;;;;;;;;5.75;5.75;;;;;;;;5078591;28;45368;-69
2023/01/06 09:55:51;;;;;;;;;3.75;2.50;;;;;;;;5078079;28;47601;-69
2023/01/06 09:58:20;;;;;;;;;5.50;3.75;;;;;;;;5078448;28;45760;-69
2023/01/06 10:00:53;;;;;;;;;4.25;3.75;;;;;;;;5078395;28;45404;-69
2023/01/06 10:03:19;;;;;;;;;3.00;3.00;;;;;;;;5078499;28;45317;-69
2023/01/06 10:06:03;;;;;;;;;2.75;2.00;;;;;;;;5078273;28;46665;-69
2023/01/06 10:08:36;;;;;;;;;3.75;3.75;;;;;;;;5078015;28;45300;-69
2023/01/06 10:11:11;;;;;;;;;6.75;3.50;;;;;;;;5078349;27;45301;-69
2023/01/06 10:13:44;;;;;;;;;3.75;3.75;;;;;;;;5060229;28;45399;-69
2023/01/06 10:16:28;;;;;;;;;5.25;5.25;;;;;;;;5077693;27;46662;-69
2023/01/06 10:19:19;;;;;;;;;2.00;2.00;;;;;;;;5077799;28;45238;-69
2023/01/06 10:21:57;;;;;;;;;4.75;4.00;;;;;;;;5074678;28;45575;-69
2023/01/06 10:24:43;;;;;;;;;2.50;2.00;;;;;;;;5078192;28;45297;-69
2023/01/06 10:27:14;;;;;;;;;4.00;2.50;;;;;;;;5066818;28;45713;-69
2023/01/06 10:29:41;;;;;;;;;3.00;3.00;;;;;;;;5077400;28;46351;-68
2023/01/06 10:32:08;;;;;;;;;2.25;2.25;;;;;;;;5077975;28;45353;-68
2023/01/06 10:34:34;;;;;;;;;2.00;2.00;;;;;;;;5078129;27;45175;-68
2023/01/06 10:37:09;;;;;;;;;4.50;3.00;;;;;;;;5077474;28;45433;-69
2023/01/06 10:39:35;;;;;;;;;3.00;3.00;;;;;;;;5077337;28;45416;-69
2023/01/06 10:44:49;;;;;;;;;6.00;4.00;;;;;;;;5077764;28;45509;-69
2023/01/06 10:47:26;;;;;;;;;4.75;3.25;;;;;;;;5077448;27;46473;-68
2023/01/06 10:49:51;;;;;;;;;4.25;4.00;;;;;;;;5077371;28;45393;-69
2023/01/06 10:52:17;;;;;;;;;4.75;3.00;;;;;;;;5077576;28;45395;-69
2023/01/06 10:54:43;;;;;;;;;5.50;2.75;;;;;;;;5077662;28;45430;-69
2023/01/06 10:57:14;;;;;;;;;3.50;3.50;;;;;;;;5077323;28;45423;-69
2023/01/06 11:00:14;;;;;;;;;4.00;4.00;;;;;;;;5077341;28;45414;-68
2023/01/06 11:02:47;;;;;;;;;6.00;4.00;;;;;;;;5014074;28;45274;-69
2023/01/06 11:05:17;;;;;;;;;4.00;3.00;;;;;;;;4998483;28;45462;-69
2023/01/06 11:07:51;;;;;;;;;3.50;3.50;;;;;;;;5014665;28;45623;-69
2023/01/06 11:10:42;;;;;;;;;4.75;4.75;;;;;;;;5013684;28;45437;-69
2023/01/06 11:13:20;;;;;;;;;6.25;5.75;;;;;;;;4994668;28;45440;-69
2023/01/06 11:15:45;;;;;;;;;4.00;4.00;;;;;;;;4995139;28;45604;-69
2023/01/06 11:18:19;;;;;;;;;4.50;4.50;;;;;;;;4994683;28;47185;-69
2023/01/06 11:20:45;;;;;;;;;3.00;3.00;;;;;;;;4994596;28;45368;-69
2023/01/06 11:23:19;;;;;;;;;11.67;9.00;;;;;;;;4995010;28;45540;-69
2023/01/06 11:25:58;;;;;;;;;3.50;3.00;;;;;;;;4994904;28;45488;-69
2023/01/06 11:28:23;;;;;;;;;3.00;3.00;;;;;;;;4994649;28;45623;-69
2023/01/06 11:30:51;;;;;;;;;1.00;1.00;;;;;;;;4994535;28;45569;-69
2023/01/06 11:33:18;;;;;;;;;3.50;2.00;;;;;;;;4994945;28;45503;-69
2023/01/06 11:35:43;;;;;;;;;1.75;1.75;;;;;;;;5001438;28;45450;-69
2023/01/06 11:38:12;;;;;;;;;2.00;2.00;;;;;;;;5054403;28;45384;-69
2023/01/06 11:40:37;;;;;;;;;3.75;2.00;;;;;;;;5054294;28;45513;-69
2023/01/06 11:43:09;;;;;;;;;3.00;2.00;;;;;;;;5054401;28;45415;-70
2023/01/06 11:45:36;;;;;;;;;1.00;1.00;;;;;;;;5054246;28;45412;-70
2023/01/06 11:48:04;;;;;;;;;2.00;2.00;;;;;;;;5054012;28;45492;-69
2023/01/06 11:50:30;;;;;;;;;4.00;2.75;;;;;;;;5057459;28;45445;-69
2023/01/06 11:53:03;;;;;;;;;3.25;3.25;;;;;;;;5060371;28;45360;-69
2023/01/06 11:55:29;;;;;;;;;28.67;27.33;;;;;;;;5060080;28;45414;-69
2023/01/06 11:58:18;;;;;;;;;5.25;5.25;;;;;;;;5059796;28;47166;-70
2023/01/06 12:00:58;;;;;;;;;3.25;2.00;;;;;;;;5059877;28;45269;-69
2023/01/06 12:03:30;;;;;;;;;2.00;2.00;;;;;;;;5060161;28;45345;-70
2023/01/06 12:05:59;;;;;;;;;2.00;2.00;;;;;;;;5060304;28;45573;-69
2023/01/06 12:08:34;;;;;;;;;1.25;1.00;;;;;;;;5059718;28;46537;-69
2023/01/06 12:11:04;;;;;;;;;2.00;2.00;;;;;;;;5059641;28;45351;-69
2023/01/06 12:13:32;;;;;;;;;1.75;1.75;;;;;;;;5059940;28;45383;-70
2023/01/06 12:16:05;;;;;;;;;1.00;1.00;;;;;;;;5059896;28;45479;-69
2023/01/06 12:18:32;;;;;;;;;3.00;1.25;;;;;;;;5059515;28;48706;-69
2023/01/06 12:20:59;;;;;;;;;1.50;1.00;;;;;;;;5059783;28;45253;-69
2023/01/06 12:23:30;;;;;;;;;0.25;0.25;;;;;;;;5059774;28;45454;-69
2023/01/06 12:25:59;;;;;;;;;3.00;1.50;;;;;;;;5059613;28;45764;-69
2023/01/06 12:28:28;;;;;;;;;4.00;2.00;;;;;;;;5059521;28;46710;-69
2023/01/06 12:30:56;;;;;;;;;5.50;3.75;;;;;;;;5059241;28;45452;-69
2023/01/06 12:33:42;;;;;;;;;3.00;2.75;;;;;;;;5059422;28;45475;-70
2023/01/06 12:36:14;;;;;;;;;4.00;3.00;;;;;;;;4997195;28;45406;-70
2023/01/06 12:38:48;;;;;;;;;3.00;3.00;;;;;;;;4997291;28;46449;-69
2023/01/06 12:41:34;;;;;;;;;6.00;3.00;;;;;;;;4997093;28;45343;-69
2023/01/06 12:44:31;;;;;;;;;2.00;2.00;;;;;;;;4996474;28;45449;-70
2023/01/06 12:46:59;;;;;;;;;1.00;1.00;;;;;;;;4900741;29;45359;-70
2023/01/06 12:49:42;;;;;;;;;3.00;1.50;;;;;;;;4899982;29;46557;-69
2023/01/06 12:52:10;;;;;;;;;0.75;0.75;;;;;;;;4900489;29;45428;-69
2023/01/06 12:54:36;;;;;;;;;1.00;1.00;;;;;;;;4900586;29;45417;-69
2023/01/06 12:57:04;;;;;;;;;1.00;1.00;;;;;;;;4900389;29;45477;-69
2023/01/06 12:59:39;;;;;;;;;3.50;2.00;;;;;;;;4900178;29;45704;-69
2023/01/06 13:02:15;;;;;;;;;3.50;1.00;;;;;;;;4900315;29;45441;-69
2023/01/06 13:04:58;;;;;;;;;1.00;1.00;;;;;;;;4900417;29;45443;-70
2023/01/06 13:07:24;;;;;;;;;2.50;2.50;;;;;;;;4900408;29;45432;-69
2023/01/06 13:10:03;;;;;;;;;2.00;1.50;;;;;;;;4900063;29;46164;-70
2023/01/06 13:12:29;;;;;;;;;2.00;2.00;;;;;;;;4914496;28;45538;-70
2023/01/06 13:15:18;;;;;;;;;7.50;6.00;;;;;;;;4977096;28;45378;-69
2023/01/06 13:17:48;;;;;;;;;0.00;0.00;;;;;;;;4977375;28;45602;-70
2023/01/06 13:20:20;;;;;;;;;5.50;5.50;;;;;;;;4977041;28;45528;-70
2023/01/06 13:22:57;;;;;;;;;3.00;3.00;;;;;;;;5024993;28;45271;-70
2023/01/06 13:25:25;;;;;;;;;4.75;3.00;;;;;;;;5058786;28;45372;-70
2023/01/06 13:28:03;;;;;;;;;3.00;2.00;;;;;;;;5063450;28;45430;-70
2023/01/06 13:30:28;;;;;;;;;1.00;1.00;;;;;;;;5078513;28;47171;-70
2023/01/06 13:32:53;;;;;;;;;2.50;1.00;;;;;;;;5078884;28;45394;-70
2023/01/06 13:35:31;;;;;;;;;3.00;1.00;;;;;;;;5078902;28;45443;-69
2023/01/06 13:38:23;;;;;;;;;2.00;2.00;;;;;;;;5079077;27;45424;-70
2023/01/06 13:40:50;;;;;;;;;0.25;0.25;;;;;;;;4995791;28;45624;-70
2023/01/06 13:43:23;;;;;;;;;0.50;0.50;;;;;;;;4996122;28;45465;-70
2023/01/06 13:45:50;;;;;;;;;0.50;0.00;;;;;;;;4996498;28;45391;-70
2023/01/06 13:48:18;;;;;;;;;1.00;1.00;;;;;;;;4996457;28;45420;-69
2023/01/06 13:50:43;;;;;;;;;3.50;2.00;;;;;;;;4996027;28;46396;-69
2023/01/06 13:53:21;;;;;;;;;1.00;1.00;;;;;;;;4996077;28;45365;-70
2023/01/06 13:55:47;;;;;;;;;1.50;1.50;;;;;;;;4996035;28;45454;-70
2023/01/06 13:58:24;;;;;;;;;0.25;0.25;;;;;;;;4996538;28;45293;-69
2023/01/06 14:01:07;;;;;;;;;1.00;1.00;;;;;;;;4995945;28;46724;-70
2023/01/06 14:03:33;;;;;;;;;3.00;3.00;;;;;;;;4995980;28;45495;-70
2023/01/06 14:05:59;;;;;;;;;3.25;3.25;;;;;;;;4996033;28;45443;-70
2023/01/06 14:08:26;;;;;;;;;4.00;4.00;;;;;;;;4996472;28;45429;-69
2023/01/06 14:11:00;;;;;;;;;3.00;3.00;;;;;;;;4995449;28;46508;-70
2023/01/06 14:13:38;;;;;;;;;1.50;1.50;;;;;;;;4995113;28;45572;-70
2023/01/06 14:16:06;;;;;;;;;2.00;2.00;;;;;;;;4995770;28;45570;-70
2023/01/06 14:18:37;;;;;;;;;1.00;1.00;;;;;;;;5067896;27;45436;-70
2023/01/06 14:21:14;;;;;;;;;3.00;3.00;;;;;;;;5077748;28;46553;-70
2023/01/06 14:24:03;;;;;;;;;2.00;2.00;;;;;;;;5077933;28;45455;-70
2023/01/06 14:26:47;;;;;;;;;1.00;1.00;;;;;;;;5077889;28;45364;-70
2023/01/06 14:29:31;;;;;;;;;0.00;0.00;;;;;;;;5077955;28;45507;-70
2023/01/06 14:31:56;;;;;;;;;0.25;0.25;;;;;;;;5077493;28;46287;-69
2023/01/06 14:34:21;;;;;;;;;3.00;3.00;;;;;;;;5077843;28;45770;-70
2023/01/06 14:36:48;;;;;;;;;0.50;0.50;;;;;;;;5059494;28;45315;-69
2023/01/06 14:39:19;;;;;;;;;4.50;2.00;;;;;;;;5078366;28;45262;-70
2023/01/06 14:41:49;;;;;;;;;3.75;3.75;;;;;;;;5077382;28;46554;-70
2023/01/06 14:44:16;;;;;;;;;4.25;2.25;;;;;;;;5077748;28;45380;-70
2023/01/06 14:46:49;;;;;;;;;1.25;1.25;;;;;;;;5077838;28;45253;-69
2023/01/06 14:49:23;;;;;;;;;2.00;2.00;;;;;;;;5077857;28;45445;-69
2023/01/06 14:51:51;;;;;;;;;1.50;1.50;;;;;;;;5077492;28;46630;-70
2023/01/06 14:54:30;;;;;;;;;2.50;2.50;;;;;;;;5077699;28;45356;-69
2023/01/06 14:56:56;;;;;;;;;3.00;3.00;;;;;;;;5077630;28;45332;-70
2023/01/06 14:59:22;;;;;;;;;1.00;1.00;;;;;;;;5077777;27;45330;-69
2023/01/06 15:01:56;;;;;;;;;3.00;2.00;;;;;;;;5077419;28;45364;-70